sensor_id;sensor_type;location;lat;lon;timestamp;P1;durP1;ratioP1;P2;durP2;ratioP2
13002;SDS011;6566;57.702;11.984;2022-12-18T00:00:26;39.38;;;15.60;;
13002;SDS011;6566;57.702;11.984;2022-12-18T00:02:52;44.83;;;17.52;;
13002;SDS011;6566;57.702;11.984;2022-12-18T00:05:17;38.40;;;14.00;;
13002;SDS011;6566;57.702;11.984;2022-12-18T00:07:42;43.30;;;14.98;;
13002;SDS011;6566;57.702;11.984;2022-12-18T00:10:07;42.25;;;17.17;;
13002;SDS011;6566;57.702;11.984;2022-12-18T00:12:33;50.50;;;19.40;;
13002;SDS011;6566;57.702;11.984;2022-12-18T00:14:58;48.25;;;19.08;;
13002;SDS011;6566;57.702;11.984;2022-12-18T00:17:24;39.75;;;17.02;;
13002;SDS011;6566;57.702;11.984;2022-12-18T00:19:49;45.78;;;17.50;;
13002;SDS011;6566;57.702;11.984;2022-12-18T00:22:17;46.97;;;19.10;;
13002;SDS011;6566;57.702;11.984;2022-12-18T00:24:42;45.05;;;19.70;;
13002;SDS011;6566;57.702;11.984;2022-12-18T00:27:08;39.30;;;14.93;;
13002;SDS011;6566;57.702;11.984;2022-12-18T00:29:33;47.83;;;18.83;;
13002;SDS011;6566;57.702;11.984;2022-12-18T00:31:58;50.63;;;21.60;;
13002;SDS011;6566;57.702;11.984;2022-12-18T00:34:23;47.67;;;21.10;;
13002;SDS011;6566;57.702;11.984;2022-12-18T00:36:49;33.67;;;14.70;;
13002;SDS011;6566;57.702;11.984;2022-12-18T00:39:14;43.95;;;19.38;;
13002;SDS011;6566;57.702;11.984;2022-12-18T00:41:39;41.53;;;17.52;;
13002;SDS011;6566;57.702;11.984;2022-12-18T00:44:23;42.85;;;16.98;;
13002;SDS011;6566;57.702;11.984;2022-12-18T00:46:48;33.97;;;15.27;;
13002;SDS011;6566;57.702;11.984;2022-12-18T00:49:15;47.22;;;20.25;;
13002;SDS011;6566;57.702;11.984;2022-12-18T00:51:40;49.90;;;20.77;;
13002;SDS011;6566;57.702;11.984;2022-12-18T00:54:05;40.25;;;17.70;;
13002;SDS011;6566;57.702;11.984;2022-12-18T00:56:31;46.92;;;18.70;;
13002;SDS011;6566;57.702;11.984;2022-12-18T00:58:56;56.17;;;20.65;;
13002;SDS011;6566;57.702;11.984;2022-12-18T01:01:21;56.38;;;22.88;;
13002;SDS011;6566;57.702;11.984;2022-12-18T01:03:47;49.80;;;19.42;;
13002;SDS011;6566;57.702;11.984;2022-12-18T01:06:12;57.05;;;19.10;;
13002;SDS011;6566;57.702;11.984;2022-12-18T01:08:38;48.35;;;17.77;;
13002;SDS011;6566;57.702;11.984;2022-12-18T01:11:08;44.92;;;20.85;;
13002;SDS011;6566;57.702;11.984;2022-12-18T01:13:34;45.08;;;17.40;;
13002;SDS011;6566;57.702;11.984;2022-12-18T01:15:59;40.88;;;18.60;;
13002;SDS011;6566;57.702;11.984;2022-12-18T01:18:24;54.88;;;20.23;;
13002;SDS011;6566;57.702;11.984;2022-12-18T01:20:49;44.53;;;17.80;;
13002;SDS011;6566;57.702;11.984;2022-12-18T01:23:15;47.28;;;17.88;;
13002;SDS011;6566;57.702;11.984;2022-12-18T01:25:40;45.78;;;16.83;;
13002;SDS011;6566;57.702;11.984;2022-12-18T01:28:05;52.03;;;19.80;;
13002;SDS011;6566;57.702;11.984;2022-12-18T01:30:30;40.28;;;18.15;;
13002;SDS011;6566;57.702;11.984;2022-12-18T01:32:56;47.22;;;19.15;;
13002;SDS011;6566;57.702;11.984;2022-12-18T01:35:21;45.58;;;18.30;;
13002;SDS011;6566;57.702;11.984;2022-12-18T01:37:46;47.55;;;18.05;;
13002;SDS011;6566;57.702;11.984;2022-12-18T01:40:12;41.45;;;18.05;;
13002;SDS011;6566;57.702;11.984;2022-12-18T01:42:37;34.28;;;16.58;;
13002;SDS011;6566;57.702;11.984;2022-12-18T01:47:41;30.25;;;13.02;;
13002;SDS011;6566;57.702;11.984;2022-12-18T01:52:33;42.88;;;18.65;;
13002;SDS011;6566;57.702;11.984;2022-12-18T01:54:59;40.03;;;16.92;;
13002;SDS011;6566;57.702;11.984;2022-12-18T01:57:25;36.95;;;14.70;;
13002;SDS011;6566;57.702;11.984;2022-12-18T01:59:52;39.15;;;17.33;;
13002;SDS011;6566;57.702;11.984;2022-12-18T02:02:17;43.13;;;16.33;;
13002;SDS011;6566;57.702;11.984;2022-12-18T02:04:43;44.03;;;16.90;;
13002;SDS011;6566;57.702;11.984;2022-12-18T02:09:41;48.33;;;16.88;;
13002;SDS011;6566;57.702;11.984;2022-12-18T02:12:13;48.13;;;16.15;;
13002;SDS011;6566;57.702;11.984;2022-12-18T02:14:55;49.97;;;17.08;;
13002;SDS011;6566;57.702;11.984;2022-12-18T02:17:27;41.20;;;15.93;;
13002;SDS011;6566;57.702;11.984;2022-12-18T02:27:33;41.08;;;14.40;;
13002;SDS011;6566;57.702;11.984;2022-12-18T02:30:00;39.40;;;13.57;;
13002;SDS011;6566;57.702;11.984;2022-12-18T02:32:39;30.45;;;11.82;;
13002;SDS011;6566;57.702;11.984;2022-12-18T02:35:06;32.88;;;12.50;;
13002;SDS011;6566;57.702;11.984;2022-12-18T02:37:32;37.38;;;14.02;;
13002;SDS011;6566;57.702;11.984;2022-12-18T02:39:59;33.10;;;11.82;;
13002;SDS011;6566;57.702;11.984;2022-12-18T02:42:24;26.27;;;10.07;;
13002;SDS011;6566;57.702;11.984;2022-12-18T02:44:51;30.08;;;11.95;;
13002;SDS011;6566;57.702;11.984;2022-12-18T02:47:20;29.30;;;10.23;;
13002;SDS011;6566;57.702;11.984;2022-12-18T02:54:55;33.72;;;11.63;;
13002;SDS011;6566;57.702;11.984;2022-12-18T03:07:38;28.30;;;11.80;;
13002;SDS011;6566;57.702;11.984;2022-12-18T03:10:04;26.92;;;10.23;;
13002;SDS011;6566;57.702;11.984;2022-12-18T03:12:32;20.38;;;9.95;;
13002;SDS011;6566;57.702;11.984;2022-12-18T03:17:25;27.75;;;11.65;;
13002;SDS011;6566;57.702;11.984;2022-12-18T03:19:51;28.40;;;10.93;;
13002;SDS011;6566;57.702;11.984;2022-12-18T03:22:18;26.42;;;11.88;;
13002;SDS011;6566;57.702;11.984;2022-12-18T03:24:44;29.70;;;11.63;;
13002;SDS011;6566;57.702;11.984;2022-12-18T03:27:11;27.50;;;10.85;;
13002;SDS011;6566;57.702;11.984;2022-12-18T03:30:37;40.88;;;11.95;;
13002;SDS011;6566;57.702;11.984;2022-12-18T03:32:40;29.88;;;11.65;;
13002;SDS011;6566;57.702;11.984;2022-12-18T03:35:06;28.33;;;11.48;;
13002;SDS011;6566;57.702;11.984;2022-12-18T03:37:32;22.90;;;8.88;;
13002;SDS011;6566;57.702;11.984;2022-12-18T03:39:58;29.42;;;11.68;;
13002;SDS011;6566;57.702;11.984;2022-12-18T03:42:33;23.52;;;10.07;;
13002;SDS011;6566;57.702;11.984;2022-12-18T03:47:34;30.20;;;11.38;;
13002;SDS011;6566;57.702;11.984;2022-12-18T03:52:28;21.98;;;11.25;;
13002;SDS011;6566;57.702;11.984;2022-12-18T03:54:55;30.58;;;12.45;;
13002;SDS011;6566;57.702;11.984;2022-12-18T03:57:23;30.30;;;11.30;;
13002;SDS011;6566;57.702;11.984;2022-12-18T03:59:50;30.05;;;11.90;;
13002;SDS011;6566;57.702;11.984;2022-12-18T04:02:17;30.15;;;10.90;;
13002;SDS011;6566;57.702;11.984;2022-12-18T04:04:42;27.33;;;10.85;;
13002;SDS011;6566;57.702;11.984;2022-12-18T04:07:08;28.13;;;10.88;;
13002;SDS011;6566;57.702;11.984;2022-12-18T04:09:34;36.08;;;12.45;;
13002;SDS011;6566;57.702;11.984;2022-12-18T04:12:01;29.45;;;11.15;;
13002;SDS011;6566;57.702;11.984;2022-12-18T04:14:26;26.98;;;11.32;;
13002;SDS011;6566;57.702;11.984;2022-12-18T04:16:51;27.27;;;11.32;;
13002;SDS011;6566;57.702;11.984;2022-12-18T04:19:16;28.63;;;10.95;;
13002;SDS011;6566;57.702;11.984;2022-12-18T04:21:42;24.58;;;9.85;;
13002;SDS011;6566;57.702;11.984;2022-12-18T04:24:07;27.98;;;11.82;;
13002;SDS011;6566;57.702;11.984;2022-12-18T04:26:33;32.50;;;11.35;;
13002;SDS011;6566;57.702;11.984;2022-12-18T04:28:58;25.27;;;9.85;;
13002;SDS011;6566;57.702;11.984;2022-12-18T04:31:23;28.35;;;10.25;;
13002;SDS011;6566;57.702;11.984;2022-12-18T04:33:49;29.63;;;11.15;;
13002;SDS011;6566;57.702;11.984;2022-12-18T04:36:14;33.53;;;11.57;;
13002;SDS011;6566;57.702;11.984;2022-12-18T04:38:39;24.02;;;9.15;;
13002;SDS011;6566;57.702;11.984;2022-12-18T04:41:05;28.45;;;9.98;;
13002;SDS011;6566;57.702;11.984;2022-12-18T04:43:30;22.35;;;9.00;;
13002;SDS011;6566;57.702;11.984;2022-12-18T04:46:02;23.50;;;9.52;;
13002;SDS011;6566;57.702;11.984;2022-12-18T04:48:28;22.90;;;9.52;;
13002;SDS011;6566;57.702;11.984;2022-12-18T04:50:53;27.08;;;8.65;;
13002;SDS011;6566;57.702;11.984;2022-12-18T04:53:18;23.90;;;9.43;;
13002;SDS011;6566;57.702;11.984;2022-12-18T04:55:43;20.38;;;7.80;;
13002;SDS011;6566;57.702;11.984;2022-12-18T04:58:09;17.33;;;7.20;;
13002;SDS011;6566;57.702;11.984;2022-12-18T05:00:34;19.20;;;7.38;;
13002;SDS011;6566;57.702;11.984;2022-12-18T05:03:00;17.40;;;6.50;;
13002;SDS011;6566;57.702;11.984;2022-12-18T05:05:25;18.85;;;7.03;;
13002;SDS011;6566;57.702;11.984;2022-12-18T05:07:51;18.58;;;7.05;;
13002;SDS011;6566;57.702;11.984;2022-12-18T05:10:16;16.13;;;5.35;;
13002;SDS011;6566;57.702;11.984;2022-12-18T05:12:41;19.50;;;6.82;;
13002;SDS011;6566;57.702;11.984;2022-12-18T05:15:31;17.63;;;6.55;;
13002;SDS011;6566;57.702;11.984;2022-12-18T05:17:57;21.02;;;6.72;;
13002;SDS011;6566;57.702;11.984;2022-12-18T05:20:23;16.95;;;6.47;;
13002;SDS011;6566;57.702;11.984;2022-12-18T05:22:49;16.15;;;6.32;;
13002;SDS011;6566;57.702;11.984;2022-12-18T05:25:14;12.30;;;5.47;;
13002;SDS011;6566;57.702;11.984;2022-12-18T05:27:40;12.23;;;5.13;;
13002;SDS011;6566;57.702;11.984;2022-12-18T05:30:05;14.73;;;5.35;;
13002;SDS011;6566;57.702;11.984;2022-12-18T05:32:31;11.75;;;4.82;;
13002;SDS011;6566;57.702;11.984;2022-12-18T05:34:56;15.30;;;5.15;;
13002;SDS011;6566;57.702;11.984;2022-12-18T05:37:22;14.27;;;4.90;;
13002;SDS011;6566;57.702;11.984;2022-12-18T05:39:47;13.82;;;5.00;;
13002;SDS011;6566;57.702;11.984;2022-12-18T05:42:12;8.40;;;3.72;;
13002;SDS011;6566;57.702;11.984;2022-12-18T05:44:38;13.63;;;4.50;;
13002;SDS011;6566;57.702;11.984;2022-12-18T05:47:03;13.32;;;4.03;;
13002;SDS011;6566;57.702;11.984;2022-12-18T05:49:29;16.77;;;5.00;;
13002;SDS011;6566;57.702;11.984;2022-12-18T05:51:54;14.30;;;4.72;;
13002;SDS011;6566;57.702;11.984;2022-12-18T05:54:19;11.70;;;4.40;;
13002;SDS011;6566;57.702;11.984;2022-12-18T05:56:45;19.75;;;5.10;;
13002;SDS011;6566;57.702;11.984;2022-12-18T05:59:10;14.10;;;5.05;;
13002;SDS011;6566;57.702;11.984;2022-12-18T06:01:35;9.75;;;4.50;;
13002;SDS011;6566;57.702;11.984;2022-12-18T06:04:00;10.25;;;4.75;;
13002;SDS011;6566;57.702;11.984;2022-12-18T06:06:26;13.73;;;4.22;;
13002;SDS011;6566;57.702;11.984;2022-12-18T06:08:52;10.20;;;4.68;;
13002;SDS011;6566;57.702;11.984;2022-12-18T06:11:19;11.18;;;4.80;;
13002;SDS011;6566;57.702;11.984;2022-12-18T06:13:45;16.73;;;5.22;;
13002;SDS011;6566;57.702;11.984;2022-12-18T06:16:11;9.35;;;3.75;;
13002;SDS011;6566;57.702;11.984;2022-12-18T06:18:36;12.27;;;4.65;;
13002;SDS011;6566;57.702;11.984;2022-12-18T06:21:01;17.20;;;5.53;;
13002;SDS011;6566;57.702;11.984;2022-12-18T06:23:27;18.75;;;5.30;;
13002;SDS011;6566;57.702;11.984;2022-12-18T06:25:53;9.43;;;3.63;;
13002;SDS011;6566;57.702;11.984;2022-12-18T06:28:18;14.32;;;4.97;;
13002;SDS011;6566;57.702;11.984;2022-12-18T06:30:44;12.70;;;4.72;;
13002;SDS011;6566;57.702;11.984;2022-12-18T06:33:09;12.23;;;4.50;;
13002;SDS011;6566;57.702;11.984;2022-12-18T06:35:34;10.60;;;4.90;;
13002;SDS011;6566;57.702;11.984;2022-12-18T06:38:01;12.68;;;4.47;;
13002;SDS011;6566;57.702;11.984;2022-12-18T06:40:26;21.20;;;4.30;;
13002;SDS011;6566;57.702;11.984;2022-12-18T06:42:51;12.38;;;4.25;;
13002;SDS011;6566;57.702;11.984;2022-12-18T06:45:16;16.50;;;4.43;;
13002;SDS011;6566;57.702;11.984;2022-12-18T06:47:42;16.95;;;5.50;;
13002;SDS011;6566;57.702;11.984;2022-12-18T06:50:07;11.68;;;4.35;;
13002;SDS011;6566;57.702;11.984;2022-12-18T06:52:33;17.05;;;4.32;;
13002;SDS011;6566;57.702;11.984;2022-12-18T06:54:59;7.03;;;3.38;;
13002;SDS011;6566;57.702;11.984;2022-12-18T06:57:24;15.30;;;4.20;;
13002;SDS011;6566;57.702;11.984;2022-12-18T06:59:50;9.75;;;3.45;;
13002;SDS011;6566;57.702;11.984;2022-12-18T07:02:15;10.40;;;3.78;;
13002;SDS011;6566;57.702;11.984;2022-12-18T07:04:40;11.68;;;4.10;;
13002;SDS011;6566;57.702;11.984;2022-12-18T07:07:05;14.15;;;4.35;;
13002;SDS011;6566;57.702;11.984;2022-12-18T07:09:31;9.98;;;3.78;;
13002;SDS011;6566;57.702;11.984;2022-12-18T07:11:56;11.50;;;4.53;;
13002;SDS011;6566;57.702;11.984;2022-12-18T07:14:21;12.98;;;4.57;;
13002;SDS011;6566;57.702;11.984;2022-12-18T07:16:47;14.68;;;4.30;;
13002;SDS011;6566;57.702;11.984;2022-12-18T07:19:12;8.02;;;3.17;;
13002;SDS011;6566;57.702;11.984;2022-12-18T07:21:37;18.60;;;3.90;;
13002;SDS011;6566;57.702;11.984;2022-12-18T07:24:02;10.10;;;3.65;;
13002;SDS011;6566;57.702;11.984;2022-12-18T07:26:28;12.32;;;3.30;;
13002;SDS011;6566;57.702;11.984;2022-12-18T07:28:56;5.95;;;2.55;;
13002;SDS011;6566;57.702;11.984;2022-12-18T07:31:22;10.40;;;3.47;;
13002;SDS011;6566;57.702;11.984;2022-12-18T07:33:48;10.45;;;3.00;;
13002;SDS011;6566;57.702;11.984;2022-12-18T07:36:14;10.63;;;3.60;;
13002;SDS011;6566;57.702;11.984;2022-12-18T07:38:39;9.55;;;3.40;;
13002;SDS011;6566;57.702;11.984;2022-12-18T07:41:05;9.60;;;4.18;;
13002;SDS011;6566;57.702;11.984;2022-12-18T07:43:31;7.93;;;2.42;;
13002;SDS011;6566;57.702;11.984;2022-12-18T07:45:57;10.52;;;3.60;;
13002;SDS011;6566;57.702;11.984;2022-12-18T07:48:22;11.98;;;3.05;;
13002;SDS011;6566;57.702;11.984;2022-12-18T07:50:47;13.90;;;3.85;;
13002;SDS011;6566;57.702;11.984;2022-12-18T07:53:12;9.77;;;3.42;;
13002;SDS011;6566;57.702;11.984;2022-12-18T07:55:39;10.55;;;2.70;;
13002;SDS011;6566;57.702;11.984;2022-12-18T07:58:04;10.52;;;3.50;;
13002;SDS011;6566;57.702;11.984;2022-12-18T08:00:30;16.23;;;2.78;;
13002;SDS011;6566;57.702;11.984;2022-12-18T08:02:56;8.57;;;3.30;;
13002;SDS011;6566;57.702;11.984;2022-12-18T08:05:21;8.35;;;3.83;;
13002;SDS011;6566;57.702;11.984;2022-12-18T08:07:47;10.23;;;3.60;;
13002;SDS011;6566;57.702;11.984;2022-12-18T08:10:12;13.88;;;3.97;;
13002;SDS011;6566;57.702;11.984;2022-12-18T08:12:37;9.18;;;3.10;;
13002;SDS011;6566;57.702;11.984;2022-12-18T08:15:03;9.90;;;3.47;;
13002;SDS011;6566;57.702;11.984;2022-12-18T08:17:28;17.33;;;3.35;;
13002;SDS011;6566;57.702;11.984;2022-12-18T08:19:53;9.00;;;2.95;;
13002;SDS011;6566;57.702;11.984;2022-12-18T08:22:19;11.40;;;3.28;;
13002;SDS011;6566;57.702;11.984;2022-12-18T08:24:44;8.93;;;2.83;;
13002;SDS011;6566;57.702;11.984;2022-12-18T08:27:09;11.63;;;3.28;;
13002;SDS011;6566;57.702;11.984;2022-12-18T08:29:35;12.60;;;3.45;;
13002;SDS011;6566;57.702;11.984;2022-12-18T08:32:00;10.63;;;3.58;;
13002;SDS011;6566;57.702;11.984;2022-12-18T08:34:25;7.75;;;3.50;;
13002;SDS011;6566;57.702;11.984;2022-12-18T08:36:51;15.55;;;4.13;;
13002;SDS011;6566;57.702;11.984;2022-12-18T08:39:16;16.35;;;4.45;;
13002;SDS011;6566;57.702;11.984;2022-12-18T08:41:41;19.33;;;5.38;;
13002;SDS011;6566;57.702;11.984;2022-12-18T08:44:07;13.02;;;3.67;;
13002;SDS011;6566;57.702;11.984;2022-12-18T08:47:10;14.65;;;3.85;;
13002;SDS011;6566;57.702;11.984;2022-12-18T08:49:36;9.55;;;3.95;;
13002;SDS011;6566;57.702;11.984;2022-12-18T08:52:01;11.48;;;4.20;;
13002;SDS011;6566;57.702;11.984;2022-12-18T08:54:27;12.98;;;4.22;;
13002;SDS011;6566;57.702;11.984;2022-12-18T08:56:53;12.25;;;3.72;;
13002;SDS011;6566;57.702;11.984;2022-12-18T08:59:18;11.68;;;4.43;;
13002;SDS011;6566;57.702;11.984;2022-12-18T09:01:43;15.40;;;5.00;;
13002;SDS011;6566;57.702;11.984;2022-12-18T09:04:09;10.45;;;4.43;;
13002;SDS011;6566;57.702;11.984;2022-12-18T09:06:34;13.80;;;3.85;;
13002;SDS011;6566;57.702;11.984;2022-12-18T09:09:00;12.23;;;4.65;;
13002;SDS011;6566;57.702;11.984;2022-12-18T09:11:26;14.45;;;5.00;;
13002;SDS011;6566;57.702;11.984;2022-12-18T09:13:52;13.88;;;4.82;;
13002;SDS011;6566;57.702;11.984;2022-12-18T09:16:17;18.00;;;5.30;;
13002;SDS011;6566;57.702;11.984;2022-12-18T09:18:44;17.48;;;5.93;;
13002;SDS011;6566;57.702;11.984;2022-12-18T09:21:11;14.88;;;5.03;;
13002;SDS011;6566;57.702;11.984;2022-12-18T09:23:36;14.75;;;5.15;;
13002;SDS011;6566;57.702;11.984;2022-12-18T09:26:01;18.17;;;5.25;;
13002;SDS011;6566;57.702;11.984;2022-12-18T09:28:27;15.55;;;4.63;;
13002;SDS011;6566;57.702;11.984;2022-12-18T09:30:53;15.98;;;4.90;;
13002;SDS011;6566;57.702;11.984;2022-12-18T09:33:18;13.90;;;4.38;;
13002;SDS011;6566;57.702;11.984;2022-12-18T09:35:44;13.57;;;5.00;;
13002;SDS011;6566;57.702;11.984;2022-12-18T09:38:11;24.25;;;5.13;;
13002;SDS011;6566;57.702;11.984;2022-12-18T09:40:44;12.35;;;4.63;;
13002;SDS011;6566;57.702;11.984;2022-12-18T09:43:18;17.35;;;4.20;;
13002;SDS011;6566;57.702;11.984;2022-12-18T09:45:44;20.63;;;5.00;;
13002;SDS011;6566;57.702;11.984;2022-12-18T09:48:14;14.52;;;5.03;;
13002;SDS011;6566;57.702;11.984;2022-12-18T09:50:41;15.43;;;5.10;;
13002;SDS011;6566;57.702;11.984;2022-12-18T09:53:09;19.30;;;5.38;;
13002;SDS011;6566;57.702;11.984;2022-12-18T09:55:39;13.57;;;4.30;;
13002;SDS011;6566;57.702;11.984;2022-12-18T10:00:39;17.60;;;5.05;;
13002;SDS011;6566;57.702;11.984;2022-12-18T10:03:11;9.70;;;3.88;;
13002;SDS011;6566;57.702;11.984;2022-12-18T10:05:39;13.65;;;4.40;;
13002;SDS011;6566;57.702;11.984;2022-12-18T10:13:33;12.82;;;5.20;;
13002;SDS011;6566;57.702;11.984;2022-12-18T10:16:58;11.13;;;3.63;;
13002;SDS011;6566;57.702;11.984;2022-12-18T10:18:56;14.80;;;3.95;;
13002;SDS011;6566;57.702;11.984;2022-12-18T10:21:58;10.48;;;3.83;;
13002;SDS011;6566;57.702;11.984;2022-12-18T10:26:41;12.10;;;4.03;;
13002;SDS011;6566;57.702;11.984;2022-12-18T10:29:13;8.00;;;3.42;;
13002;SDS011;6566;57.702;11.984;2022-12-18T10:31:39;12.15;;;3.35;;
13002;SDS011;6566;57.702;11.984;2022-12-18T10:34:04;8.73;;;3.30;;
13002;SDS011;6566;57.702;11.984;2022-12-18T10:36:29;7.82;;;3.30;;
13002;SDS011;6566;57.702;11.984;2022-12-18T10:39:01;10.63;;;3.58;;
13002;SDS011;6566;57.702;11.984;2022-12-18T10:41:38;14.02;;;3.15;;
13002;SDS011;6566;57.702;11.984;2022-12-18T10:46:41;7.85;;;2.47;;
13002;SDS011;6566;57.702;11.984;2022-12-18T10:49:07;12.55;;;3.47;;
13002;SDS011;6566;57.702;11.984;2022-12-18T10:51:43;8.40;;;2.53;;
13002;SDS011;6566;57.702;11.984;2022-12-18T10:54:15;11.25;;;2.65;;
13002;SDS011;6566;57.702;11.984;2022-12-18T10:56:42;9.02;;;2.88;;
13002;SDS011;6566;57.702;11.984;2022-12-18T10:59:09;10.18;;;3.05;;
13002;SDS011;6566;57.702;11.984;2022-12-18T11:04:13;8.82;;;2.70;;
13002;SDS011;6566;57.702;11.984;2022-12-18T11:07:00;14.55;;;3.35;;
13002;SDS011;6566;57.702;11.984;2022-12-18T11:09:29;12.77;;;3.83;;
13002;SDS011;6566;57.702;11.984;2022-12-18T11:11:57;10.32;;;2.90;;
13002;SDS011;6566;57.702;11.984;2022-12-18T11:14:25;13.02;;;3.45;;
13002;SDS011;6566;57.702;11.984;2022-12-18T11:16:51;9.85;;;2.92;;
13002;SDS011;6566;57.702;11.984;2022-12-18T11:21:46;14.95;;;3.40;;
13002;SDS011;6566;57.702;11.984;2022-12-18T11:24:19;13.15;;;3.50;;
13002;SDS011;6566;57.702;11.984;2022-12-18T11:26:45;9.48;;;2.70;;
13002;SDS011;6566;57.702;11.984;2022-12-18T11:29:15;9.80;;;3.25;;
13002;SDS011;6566;57.702;11.984;2022-12-18T11:31:42;11.50;;;3.28;;
13002;SDS011;6566;57.702;11.984;2022-12-18T11:34:11;13.60;;;3.22;;
13002;SDS011;6566;57.702;11.984;2022-12-18T11:36:40;10.55;;;3.28;;
13002;SDS011;6566;57.702;11.984;2022-12-18T11:41:41;8.82;;;3.42;;
13002;SDS011;6566;57.702;11.984;2022-12-18T11:44:35;12.95;;;3.67;;
13002;SDS011;6566;57.702;11.984;2022-12-18T11:47:04;12.23;;;3.50;;
13002;SDS011;6566;57.702;11.984;2022-12-18T11:49:34;12.20;;;3.28;;
13002;SDS011;6566;57.702;11.984;2022-12-18T11:54:28;9.55;;;2.78;;
13002;SDS011;6566;57.702;11.984;2022-12-18T11:56:58;11.45;;;3.45;;
13002;SDS011;6566;57.702;11.984;2022-12-18T12:01:59;13.60;;;3.58;;
13002;SDS011;6566;57.702;11.984;2022-12-18T12:12:27;9.05;;;3.00;;
13002;SDS011;6566;57.702;11.984;2022-12-18T12:15:00;14.70;;;4.25;;
13002;SDS011;6566;57.702;11.984;2022-12-18T12:17:45;9.82;;;3.38;;
13002;SDS011;6566;57.702;11.984;2022-12-18T12:20:22;12.05;;;3.55;;
13002;SDS011;6566;57.702;11.984;2022-12-18T12:25:37;9.98;;;3.95;;
13002;SDS011;6566;57.702;11.984;2022-12-18T12:28:26;12.05;;;4.03;;
13002;SDS011;6566;57.702;11.984;2022-12-18T12:38:44;15.07;;;3.42;;
13002;SDS011;6566;57.702;11.984;2022-12-18T12:41:14;11.65;;;3.03;;
13002;SDS011;6566;57.702;11.984;2022-12-18T12:44:05;12.02;;;3.03;;
13002;SDS011;6566;57.702;11.984;2022-12-18T12:46:32;15.25;;;3.88;;
13002;SDS011;6566;57.702;11.984;2022-12-18T12:49:00;10.40;;;2.67;;
13002;SDS011;6566;57.702;11.984;2022-12-18T12:53:51;10.35;;;3.00;;
13002;SDS011;6566;57.702;11.984;2022-12-18T12:56:18;13.07;;;3.63;;
13002;SDS011;6566;57.702;11.984;2022-12-18T12:58:56;9.25;;;2.97;;
13002;SDS011;6566;57.702;11.984;2022-12-18T13:04:08;7.70;;;2.78;;
13002;SDS011;6566;57.702;11.984;2022-12-18T13:06:59;12.45;;;2.85;;
13002;SDS011;6566;57.702;11.984;2022-12-18T13:09:22;14.10;;;3.75;;
13002;SDS011;6566;57.702;11.984;2022-12-18T13:11:47;12.85;;;2.90;;
13002;SDS011;6566;57.702;11.984;2022-12-18T13:14:32;11.00;;;2.90;;
13002;SDS011;6566;57.702;11.984;2022-12-18T13:19:42;9.80;;;2.55;;
13002;SDS011;6566;57.702;11.984;2022-12-18T13:28:07;6.13;;;2.30;;
13002;SDS011;6566;57.702;11.984;2022-12-18T13:35:40;12.00;;;2.70;;
13002;SDS011;6566;57.702;11.984;2022-12-18T13:45:57;11.23;;;3.13;;
13002;SDS011;6566;57.702;11.984;2022-12-18T13:48:24;12.80;;;3.20;;
13002;SDS011;6566;57.702;11.984;2022-12-18T13:50:55;8.57;;;2.60;;
13002;SDS011;6566;57.702;11.984;2022-12-18T13:53:22;10.00;;;2.90;;
13002;SDS011;6566;57.702;11.984;2022-12-18T13:55:48;12.07;;;3.55;;
13002;SDS011;6566;57.702;11.984;2022-12-18T13:58:14;13.93;;;3.10;;
13002;SDS011;6566;57.702;11.984;2022-12-18T14:00:42;10.35;;;2.63;;
13002;SDS011;6566;57.702;11.984;2022-12-18T14:03:16;12.13;;;3.03;;
13002;SDS011;6566;57.702;11.984;2022-12-18T14:05:43;10.68;;;2.80;;
13002;SDS011;6566;57.702;11.984;2022-12-18T14:08:11;7.13;;;2.67;;
13002;SDS011;6566;57.702;11.984;2022-12-18T14:10:44;10.45;;;2.80;;
13002;SDS011;6566;57.702;11.984;2022-12-18T14:13:13;11.52;;;2.95;;
13002;SDS011;6566;57.702;11.984;2022-12-18T14:20:41;11.35;;;3.15;;
13002;SDS011;6566;57.702;11.984;2022-12-18T14:23:24;9.35;;;3.03;;
13002;SDS011;6566;57.702;11.984;2022-12-18T14:25:50;12.90;;;3.30;;
13002;SDS011;6566;57.702;11.984;2022-12-18T14:28:15;11.50;;;3.22;;
13002;SDS011;6566;57.702;11.984;2022-12-18T14:30:42;7.22;;;2.58;;
13002;SDS011;6566;57.702;11.984;2022-12-18T14:33:09;7.40;;;2.80;;
13002;SDS011;6566;57.702;11.984;2022-12-18T14:35:39;13.15;;;3.53;;
13002;SDS011;6566;57.702;11.984;2022-12-18T14:38:24;11.77;;;2.88;;
13002;SDS011;6566;57.702;11.984;2022-12-18T14:40:53;9.38;;;2.65;;
13002;SDS011;6566;57.702;11.984;2022-12-18T14:43:18;9.73;;;3.15;;
13002;SDS011;6566;57.702;11.984;2022-12-18T14:45:44;11.77;;;3.13;;
13002;SDS011;6566;57.702;11.984;2022-12-18T14:50:36;11.93;;;3.20;;
13002;SDS011;6566;57.702;11.984;2022-12-18T14:53:01;9.95;;;3.75;;
13002;SDS011;6566;57.702;11.984;2022-12-18T14:55:26;15.30;;;3.75;;
13002;SDS011;6566;57.702;11.984;2022-12-18T14:57:52;11.38;;;4.30;;
13002;SDS011;6566;57.702;11.984;2022-12-18T15:00:20;12.00;;;4.65;;
13002;SDS011;6566;57.702;11.984;2022-12-18T15:02:46;15.65;;;4.30;;
13002;SDS011;6566;57.702;11.984;2022-12-18T15:07:48;14.25;;;5.63;;
13002;SDS011;6566;57.702;11.984;2022-12-18T15:10:15;20.73;;;6.72;;
13002;SDS011;6566;57.702;11.984;2022-12-18T15:12:44;14.32;;;5.70;;
13002;SDS011;6566;57.702;11.984;2022-12-18T15:17:57;25.38;;;7.45;;
13002;SDS011;6566;57.702;11.984;2022-12-18T15:20:22;19.88;;;7.45;;
13002;SDS011;6566;57.702;11.984;2022-12-18T15:22:48;26.77;;;8.90;;
13002;SDS011;6566;57.702;11.984;2022-12-18T15:25:34;27.65;;;10.30;;
13002;SDS011;6566;57.702;11.984;2022-12-18T15:28:01;31.13;;;11.00;;
13002;SDS011;6566;57.702;11.984;2022-12-18T15:30:26;26.95;;;10.98;;
13002;SDS011;6566;57.702;11.984;2022-12-18T15:32:52;30.38;;;12.20;;
13002;SDS011;6566;57.702;11.984;2022-12-18T15:35:37;43.08;;;14.55;;
13002;SDS011;6566;57.702;11.984;2022-12-18T15:38:02;38.15;;;13.77;;
13002;SDS011;6566;57.702;11.984;2022-12-18T15:40:27;44.10;;;16.15;;
13002;SDS011;6566;57.702;11.984;2022-12-18T15:42:53;48.28;;;16.70;;
13002;SDS011;6566;57.702;11.984;2022-12-18T15:45:38;39.75;;;15.95;;
13002;SDS011;6566;57.702;11.984;2022-12-18T15:48:38;48.50;;;17.20;;
13002;SDS011;6566;57.702;11.984;2022-12-18T15:50:55;43.85;;;17.25;;
13002;SDS011;6566;57.702;11.984;2022-12-18T15:53:22;52.33;;;17.83;;
13002;SDS011;6566;57.702;11.984;2022-12-18T15:55:47;53.63;;;16.98;;
13002;SDS011;6566;57.702;11.984;2022-12-18T15:58:31;66.43;;;18.38;;
13002;SDS011;6566;57.702;11.984;2022-12-18T16:00:58;49.92;;;18.58;;
13002;SDS011;6566;57.702;11.984;2022-12-18T16:03:23;53.25;;;18.83;;
13002;SDS011;6566;57.702;11.984;2022-12-18T16:05:48;59.78;;;17.83;;
13002;SDS011;6566;57.702;11.984;2022-12-18T16:08:14;41.42;;;16.63;;
13002;SDS011;6566;57.702;11.984;2022-12-18T16:10:39;36.72;;;15.27;;
13002;SDS011;6566;57.702;11.984;2022-12-18T16:13:05;56.60;;;20.10;;
13002;SDS011;6566;57.702;11.984;2022-12-18T16:15:31;48.60;;;17.98;;
13002;SDS011;6566;57.702;11.984;2022-12-18T16:17:56;59.65;;;20.48;;
13002;SDS011;6566;57.702;11.984;2022-12-18T16:20:21;57.90;;;21.67;;
13002;SDS011;6566;57.702;11.984;2022-12-18T16:22:47;58.78;;;20.70;;
13002;SDS011;6566;57.702;11.984;2022-12-18T16:25:18;57.85;;;20.23;;
13002;SDS011;6566;57.702;11.984;2022-12-18T16:27:43;54.53;;;19.30;;
13002;SDS011;6566;57.702;11.984;2022-12-18T16:30:28;56.75;;;20.60;;
13002;SDS011;6566;57.702;11.984;2022-12-18T16:32:55;61.00;;;20.88;;
13002;SDS011;6566;57.702;11.984;2022-12-18T16:35:20;54.38;;;20.20;;